Time;durP1;ratioP1;P1;durP2;ratioP2;P2;SDS_P1;SDS_P2;PMS_P1;PMS_P2;Temp;Humidity;BMP_temperature;BMP_pressure;BME280_temperature;BME280_humidity;BME280_pressure;Samples;Min_cycle;Max_cycle;Signal;HPM_P1;HPM_P2
2022/04/02 00:01:22;;;;;;;29.20;16.73;;;;;;;;;;5015183;28;20072;-41
2022/04/02 00:03:47;;;;;;;29.45;15.80;;;;;;;;;;5015164;28;20489;-41
2022/04/02 00:06:13;;;;;;;24.85;14.85;;;;;;;;;;5014818;28;20022;-40
2022/04/02 00:08:38;;;;;;;26.55;16.55;;;;;;;;;;5014836;28;20033;-42
2022/04/02 00:11:04;;;;;;;31.48;16.55;;;;;;;;;;5014783;28;20026;-40
2022/04/02 00:13:32;;;;;;;27.17;15.55;;;;;;;;;;5014627;28;20026;-41
2022/04/02 00:15:59;;;;;;;31.33;17.05;;;;;;;;;;5014758;28;20018;-41
2022/04/02 00:18:25;;;;;;;31.88;16.48;;;;;;;;;;5014641;28;20037;-42
2022/04/02 00:20:51;;;;;;;31.85;16.88;;;;;;;;;;5014901;28;20109;-40
2022/04/02 00:26:02;;;;;;;38.45;16.05;;;;;;;;;;5014904;28;20128;-41
2022/04/02 00:28:28;;;;;;;33.67;17.38;;;;;;;;;;5014484;28;20034;-42
2022/04/02 00:30:53;;;;;;;30.65;17.63;;;;;;;;;;5014436;28;20030;-42
2022/04/02 00:33:19;;;;;;;34.75;17.50;;;;;;;;;;5014474;28;20026;-42
2022/04/02 00:35:44;;;;;;;34.08;16.70;;;;;;;;;;5014447;28;20048;-41
2022/04/02 00:38:10;;;;;;;34.70;18.25;;;;;;;;;;5014416;28;20034;-42
2022/04/02 00:40:37;;;;;;;34.40;18.33;;;;;;;;;;5014702;28;20030;-41
2022/04/02 00:43:04;;;;;;;33.45;18.02;;;;;;;;;;5014313;28;20109;-41
2022/04/02 00:45:29;;;;;;;32.20;18.25;;;;;;;;;;5014273;28;20047;-41
2022/04/02 00:47:55;;;;;;;33.60;17.10;;;;;;;;;;5014342;28;20034;-40
2022/04/02 00:50:21;;;;;;;28.13;15.23;;;;;;;;;;4967845;28;1357113;-41
2022/04/02 00:52:46;;;;;;;31.17;17.10;;;;;;;;;;5015402;28;20034;-41
2022/04/02 00:55:12;;;;;;;35.35;17.70;;;;;;;;;;5015385;28;20030;-41
2022/04/02 00:57:38;;;;;;;39.22;17.88;;;;;;;;;;5015354;28;20062;-40
2022/04/02 01:00:04;;;;;;;29.52;17.08;;;;;;;;;;5015566;28;20041;-41
2022/04/02 01:02:30;;;;;;;32.25;17.70;;;;;;;;;;5014714;28;20117;-41
2022/04/02 01:04:56;;;;;;;35.45;18.52;;;;;;;;;;5015147;28;20112;-40
2022/04/02 01:07:21;;;;;;;34.63;17.27;;;;;;;;;;5015414;28;20056;-41
2022/04/02 01:09:47;;;;;;;34.13;18.00;;;;;;;;;;5015012;28;20437;-41
2022/04/02 01:12:12;;;;;;;34.47;17.25;;;;;;;;;;5015315;28;20033;-41
2022/04/02 01:14:38;;;;;;;35.58;17.90;;;;;;;;;;5014982;28;20030;-43
2022/04/02 01:17:05;;;;;;;34.42;17.05;;;;;;;;;;5015200;28;20390;-41
2022/04/02 01:19:32;;;;;;;33.22;18.67;;;;;;;;;;5015141;28;20048;-42
2022/04/02 01:21:57;;;;;;;35.65;18.65;;;;;;;;;;5014890;28;20101;-40
2022/04/02 01:24:23;;;;;;;31.80;17.52;;;;;;;;;;5014840;28;20110;-42
2022/04/02 01:26:48;;;;;;;29.83;16.42;;;;;;;;;;5015050;28;20418;-41
2022/04/02 01:29:14;;;;;;;33.33;17.20;;;;;;;;;;5014701;28;20025;-40
2022/04/02 01:31:43;;;;;;;36.08;18.65;;;;;;;;;;5014584;28;20026;-40
2022/04/02 01:34:09;;;;;;;30.52;17.00;;;;;;;;;;5014479;28;20044;-42
2022/04/02 01:36:34;;;;;;;34.83;17.15;;;;;;;;;;5014551;28;20109;-41
2022/04/02 01:39:00;;;;;;;40.17;18.83;;;;;;;;;;5014523;28;20065;-42
2022/04/02 01:41:25;;;;;;;30.73;16.63;;;;;;;;;;5014463;28;20022;-41
2022/04/02 01:43:51;;;;;;;30.80;16.13;;;;;;;;;;5014627;28;20076;-42
2022/04/02 01:46:17;;;;;;;36.85;17.67;;;;;;;;;;5014663;28;20030;-42
2022/04/02 01:48:42;;;;;;;33.30;17.42;;;;;;;;;;5014273;28;20026;-41
2022/04/02 01:51:08;;;;;;;31.23;15.90;;;;;;;;;;5014129;28;20129;-41
2022/04/02 01:53:34;;;;;;;35.92;18.02;;;;;;;;;;5014012;28;20390;-41
2022/04/02 01:56:00;;;;;;;35.00;17.25;;;;;;;;;;5014368;28;20026;-41
2022/04/02 01:58:26;;;;;;;38.22;18.50;;;;;;;;;;5014413;28;20022;-41
2022/04/02 02:00:51;;;;;;;31.90;15.82;;;;;;;;;;5014393;28;20042;-40
2022/04/02 02:03:17;;;;;;;32.85;15.93;;;;;;;;;;5014067;28;20109;-40
2022/04/02 02:05:43;;;;;;;34.17;14.70;;;;;;;;;;5014018;28;20482;-40
2022/04/02 02:08:09;;;;;;;33.20;16.65;;;;;;;;;;5013989;28;20036;-42
2022/04/02 02:10:35;;;;;;;35.40;17.60;;;;;;;;;;5014185;28;20022;-41
2022/04/02 02:13:00;;;;;;;34.05;16.08;;;;;;;;;;5013498;28;20402;-41
2022/04/02 02:15:26;;;;;;;29.67;16.60;;;;;;;;;;5013938;28;20030;-40
2022/04/02 02:17:53;;;;;;;34.03;16.90;;;;;;;;;;5013769;28;20478;-40
2022/04/02 02:20:19;;;;;;;32.53;17.85;;;;;;;;;;5013759;28;20026;-40
2022/04/02 02:22:46;;;;;;;26.63;14.45;;;;;;;;;;5013703;28;20545;-40
2022/04/02 02:25:13;;;;;;;33.03;18.05;;;;;;;;;;5013897;28;20033;-41
2022/04/02 02:27:40;;;;;;;32.15;15.55;;;;;;;;;;5013525;28;20030;-41
2022/04/02 02:30:07;;;;;;;29.83;17.13;;;;;;;;;;5013818;28;20018;-40
2022/04/02 02:32:36;;;;;;;30.40;15.55;;;;;;;;;;5013458;28;20022;-40
2022/04/02 02:38:21;;;;;;;32.08;15.75;;;;;;;;;;5013809;28;20068;-41
2022/04/02 02:40:47;;;;;;;34.20;16.30;;;;;;;;;;5010513;28;20057;-40
2022/04/02 02:43:13;;;;;;;29.25;16.77;;;;;;;;;;5013680;28;20192;-41
2022/04/02 02:45:39;;;;;;;29.13;15.15;;;;;;;;;;5013395;28;20021;-40
2022/04/02 02:48:06;;;;;;;31.05;16.25;;;;;;;;;;5013586;28;20355;-41
2022/04/02 02:50:32;;;;;;;26.42;14.60;;;;;;;;;;5013140;28;20375;-41
2022/04/02 02:52:59;;;;;;;28.58;16.70;;;;;;;;;;5012913;28;20080;-43
2022/04/02 02:55:25;;;;;;;32.58;17.27;;;;;;;;;;5013469;28;20030;-40
2022/04/02 02:57:50;;;;;;;31.65;16.13;;;;;;;;;;4995629;28;20056;-40
2022/04/02 03:00:17;;;;;;;26.55;13.65;;;;;;;;;;5012938;28;20026;-41
2022/04/02 03:02:43;;;;;;;30.50;16.30;;;;;;;;;;5012970;28;20034;-44
2022/04/02 03:05:11;;;;;;;31.83;15.82;;;;;;;;;;5012878;28;20505;-40
2022/04/02 03:07:48;;;;;;;31.55;15.98;;;;;;;;;;5012935;28;20025;-41
2022/04/02 03:10:22;;;;;;;32.03;15.68;;;;;;;;;;5013117;28;20110;-40
2022/04/02 03:12:48;;;;;;;34.20;15.82;;;;;;;;;;5013084;28;20060;-42
2022/04/02 03:15:18;;;;;;;30.25;14.88;;;;;;;;;;5012794;28;20021;-39
2022/04/02 03:17:44;;;;;;;27.80;14.80;;;;;;;;;;5012864;28;20125;-40
2022/04/02 03:20:12;;;;;;;29.23;15.32;;;;;;;;;;5012874;28;20052;-41
2022/04/02 03:22:40;;;;;;;31.27;16.23;;;;;;;;;;5012976;28;20030;-41
2022/04/02 03:25:10;;;;;;;27.27;15.15;;;;;;;;;;5012610;28;20564;-40
2022/04/02 03:27:40;;;;;;;29.47;15.73;;;;;;;;;;5012706;28;20474;-44
2022/04/02 03:30:11;;;;;;;26.50;15.13;;;;;;;;;;5012715;28;20069;-41
2022/04/02 03:32:38;;;;;;;28.80;15.00;;;;;;;;;;5012485;28;20034;-40
2022/04/02 03:35:05;;;;;;;30.42;15.40;;;;;;;;;;5012662;28;20022;-40
2022/04/02 03:37:30;;;;;;;29.23;14.55;;;;;;;;;;5012965;28;20116;-42
2022/04/02 03:39:56;;;;;;;30.55;15.82;;;;;;;;;;5012848;28;20468;-40
2022/04/02 03:42:22;;;;;;;31.10;15.80;;;;;;;;;;5012538;28;20018;-42
2022/04/02 03:44:48;;;;;;;26.58;14.63;;;;;;;;;;5012495;28;20115;-40
2022/04/02 03:47:15;;;;;;;31.67;15.23;;;;;;;;;;5012703;28;20030;-41
2022/04/02 03:49:44;;;;;;;28.95;15.52;;;;;;;;;;5012387;28;20053;-40
2022/04/02 03:52:10;;;;;;;31.48;16.73;;;;;;;;;;5012736;28;20030;-41
2022/04/02 03:54:35;;;;;;;27.58;14.30;;;;;;;;;;5012584;28;20030;-42
2022/04/02 03:57:04;;;;;;;25.98;14.90;;;;;;;;;;5012647;28;20048;-42
2022/04/02 03:59:30;;;;;;;24.67;13.35;;;;;;;;;;5012334;28;20026;-41
2022/04/02 04:01:56;;;;;;;27.55;15.10;;;;;;;;;;5012622;28;20022;-40
2022/04/02 04:04:24;;;;;;;26.40;14.80;;;;;;;;;;5012351;28;20433;-41
2022/04/02 04:06:49;;;;;;;30.38;15.45;;;;;;;;;;5012540;28;20041;-40
2022/04/02 04:09:15;;;;;;;25.98;13.73;;;;;;;;;;5012295;28;20026;-43
2022/04/02 04:11:41;;;;;;;27.50;14.73;;;;;;;;;;5012476;28;20018;-41
2022/04/02 04:14:06;;;;;;;28.48;14.90;;;;;;;;;;5012480;28;20037;-41
2022/04/02 04:16:32;;;;;;;28.42;13.93;;;;;;;;;;5012243;28;20029;-43
2022/04/02 04:18:57;;;;;;;22.90;12.98;;;;;;;;;;5012235;28;20034;-40
2022/04/02 04:21:24;;;;;;;27.10;13.70;;;;;;;;;;5012226;28;20065;-44
2022/04/02 04:23:50;;;;;;;24.58;12.88;;;;;;;;;;5012371;28;20379;-41
2022/04/02 04:26:16;;;;;;;27.10;14.10;;;;;;;;;;5012061;28;20033;-40
2022/04/02 04:28:42;;;;;;;28.40;14.95;;;;;;;;;;5012305;28;20022;-41
2022/04/02 04:31:07;;;;;;;27.90;13.82;;;;;;;;;;5012229;28;20493;-40
2022/04/02 04:33:35;;;;;;;25.45;13.90;;;;;;;;;;5011986;28;20500;-40
2022/04/02 04:36:00;;;;;;;26.63;13.93;;;;;;;;;;5012313;28;20026;-42
2022/04/02 04:38:26;;;;;;;25.15;14.35;;;;;;;;;;5015398;28;20373;-42
2022/04/02 04:40:51;;;;;;;27.52;14.52;;;;;;;;;;5015805;28;20081;-41
2022/04/02 04:43:17;;;;;;;25.05;14.38;;;;;;;;;;5015564;28;20057;-41
2022/04/02 04:45:42;;;;;;;23.83;13.93;;;;;;;;;;5015554;28;20048;-40
2022/04/02 04:48:08;;;;;;;24.02;13.50;;;;;;;;;;5015852;28;20026;-41
2022/04/02 04:50:35;;;;;;;22.90;13.68;;;;;;;;;;5015253;28;20153;-40
2022/04/02 04:53:00;;;;;;;24.02;13.77;;;;;;;;;;5015612;28;20026;-40
2022/04/02 04:55:26;;;;;;;28.90;14.82;;;;;;;;;;5015716;28;20037;-41
2022/04/02 04:57:51;;;;;;;24.27;13.27;;;;;;;;;;5015548;28;20497;-42
2022/04/02 05:00:17;;;;;;;27.90;15.27;;;;;;;;;;5015346;28;20050;-40
2022/04/02 05:02:44;;;;;;;29.85;14.95;;;;;;;;;;5015478;28;20160;-42
2022/04/02 05:05:14;;;;;;;25.45;14.40;;;;;;;;;;5015136;28;20083;-46
2022/04/02 05:07:42;;;;;;;22.38;12.52;;;;;;;;;;4997506;28;20026;-41
2022/04/02 05:10:09;;;;;;;26.35;14.85;;;;;;;;;;5015083;28;20425;-40
2022/04/02 05:12:38;;;;;;;24.92;14.20;;;;;;;;;;5015171;28;20030;-41
2022/04/02 05:15:05;;;;;;;29.63;15.68;;;;;;;;;;5014974;28;20033;-41
2022/04/02 05:17:37;;;;;;;24.88;13.63;;;;;;;;;;5015211;28;20088;-41
2022/04/02 05:20:08;;;;;;;23.50;14.05;;;;;;;;;;5014963;28;20080;-40
2022/04/02 05:22:33;;;;;;;28.77;14.98;;;;;;;;;;5014812;28;20026;-43
2022/04/02 05:24:59;;;;;;;28.70;14.98;;;;;;;;;;5015036;28;20026;-41
2022/04/02 05:27:24;;;;;;;23.48;13.63;;;;;;;;;;5014787;28;20499;-40
2022/04/02 05:29:51;;;;;;;25.08;14.15;;;;;;;;;;5014965;28;20092;-42
2022/04/02 05:32:16;;;;;;;25.42;15.27;;;;;;;;;;5014639;28;20569;-40
2022/04/02 05:34:42;;;;;;;25.95;14.07;;;;;;;;;;5014467;28;20121;-40
2022/04/02 05:37:08;;;;;;;25.00;14.35;;;;;;;;;;5014853;28;20101;-40
2022/04/02 05:39:33;;;;;;;30.35;14.05;;;;;;;;;;5014761;28;20030;-42
2022/04/02 05:42:00;;;;;;;21.73;13.32;;;;;;;;;;5014426;28;20129;-42
2022/04/02 05:44:25;;;;;;;23.15;12.77;;;;;;;;;;5014474;28;20478;-41
2022/04/02 05:46:51;;;;;;;26.35;14.43;;;;;;;;;;5014646;28;20021;-40
2022/04/02 05:49:17;;;;;;;26.30;14.27;;;;;;;;;;5013054;28;20054;-44
2022/04/02 05:51:43;;;;;;;22.17;13.82;;;;;;;;;;5014324;28;20470;-40
2022/04/02 05:54:08;;;;;;;24.13;14.35;;;;;;;;;;5014179;28;20092;-40
2022/04/02 05:56:34;;;;;;;22.17;12.80;;;;;;;;;;5014431;28;20030;-42
2022/04/02 05:59:01;;;;;;;24.30;14.18;;;;;;;;;;5014358;28;20032;-40
2022/04/02 06:01:27;;;;;;;22.20;14.05;;;;;;;;;;5014293;28;20022;-40
2022/04/02 06:03:52;;;;;;;22.63;13.68;;;;;;;;;;5014312;28;20021;-40
2022/04/02 06:06:18;;;;;;;26.88;14.20;;;;;;;;;;5013954;28;20127;-40
2022/04/02 06:08:44;;;;;;;23.85;13.85;;;;;;;;;;5013855;28;20048;-40
2022/04/02 06:11:09;;;;;;;24.00;13.20;;;;;;;;;;5013994;28;20026;-41
2022/04/02 06:13:35;;;;;;;26.17;13.77;;;;;;;;;;5013861;28;20029;-40
2022/04/02 06:16:01;;;;;;;22.88;13.40;;;;;;;;;;5013858;28;20030;-41
2022/04/02 06:18:26;;;;;;;22.55;13.40;;;;;;;;;;5014099;28;20113;-41
2022/04/02 06:20:52;;;;;;;25.70;13.93;;;;;;;;;;5013721;28;20053;-42
2022/04/02 06:23:18;;;;;;;19.63;13.30;;;;;;;;;;5013957;28;20079;-40
2022/04/02 06:25:44;;;;;;;24.90;12.88;;;;;;;;;;5014018;28;20034;-42
2022/04/02 06:28:09;;;;;;;20.63;13.15;;;;;;;;;;5013536;28;20075;-40
2022/04/02 06:30:35;;;;;;;22.45;13.65;;;;;;;;;;5013797;28;20030;-40
2022/04/02 06:33:01;;;;;;;22.77;13.43;;;;;;;;;;5013618;28;20026;-40
2022/04/02 06:35:27;;;;;;;24.58;13.93;;;;;;;;;;5013812;28;20029;-40
2022/04/02 06:37:54;;;;;;;22.08;13.07;;;;;;;;;;5013731;28;20044;-40
2022/04/02 06:40:21;;;;;;;22.75;13.38;;;;;;;;;;5013436;28;20033;-40
2022/04/02 06:42:46;;;;;;;23.95;13.55;;;;;;;;;;5013424;28;20080;-42
2022/04/02 06:45:13;;;;;;;22.83;13.95;;;;;;;;;;5013326;28;20034;-41
2022/04/02 06:47:38;;;;;;;26.05;14.18;;;;;;;;;;5013580;28;20077;-40
2022/04/02 06:50:06;;;;;;;25.50;13.85;;;;;;;;;;5013297;28;20580;-40
2022/04/02 06:52:32;;;;;;;23.00;13.63;;;;;;;;;;5013255;28;20030;-40
2022/04/02 06:54:58;;;;;;;24.00;14.85;;;;;;;;;;5013142;28;20018;-40
2022/04/02 06:57:23;;;;;;;24.60;13.90;;;;;;;;;;5013363;28;20048;-41
2022/04/02 06:59:49;;;;;;;21.65;13.88;;;;;;;;;;5013027;28;20026;-40
2022/04/02 07:02:20;;;;;;;21.35;13.45;;;;;;;;;;5013169;28;20053;-40
2022/04/02 07:04:46;;;;;;;28.50;13.27;;;;;;;;;;5013217;28;20077;-39
2022/04/02 07:07:11;;;;;;;26.60;14.00;;;;;;;;;;5012334;28;20445;-40
2022/04/02 07:09:37;;;;;;;20.90;13.20;;;;;;;;;;5011045;28;20030;-40
2022/04/02 07:12:03;;;;;;;24.00;13.23;;;;;;;;;;5011200;28;20386;-39
2022/04/02 07:14:29;;;;;;;21.73;12.35;;;;;;;;;;5012946;28;20030;-39
2022/04/02 07:16:54;;;;;;;24.48;14.02;;;;;;;;;;5012783;28;20045;-40
2022/04/02 07:19:22;;;;;;;25.48;13.75;;;;;;;;;;5012712;28;20463;-39
2022/04/02 07:21:50;;;;;;;23.42;13.13;;;;;;;;;;5012884;28;20026;-39
2022/04/02 07:24:20;;;;;;;22.90;13.85;;;;;;;;;;5012680;28;20034;-40
2022/04/02 07:26:46;;;;;;;19.63;12.88;;;;;;;;;;5012560;28;20018;-40
2022/04/02 07:29:15;;;;;;;19.35;12.45;;;;;;;;;;5012411;28;20029;-39
2022/04/02 07:31:44;;;;;;;21.60;12.90;;;;;;;;;;5012412;28;20144;-40
2022/04/02 07:34:09;;;;;;;21.35;12.98;;;;;;;;;;5012290;28;20478;-40
2022/04/02 07:36:38;;;;;;;25.85;13.20;;;;;;;;;;5012376;28;20037;-40
2022/04/02 07:39:25;;;;;;;20.73;13.25;;;;;;;;;;5012417;28;20061;-40
2022/04/02 07:42:07;;;;;;;24.42;13.23;;;;;;;;;;5010906;28;20070;-45
2022/04/02 07:44:52;;;;;;;24.65;14.23;;;;;;;;;;5012471;28;20076;-44
2022/04/02 07:47:22;;;;;;;21.55;13.40;;;;;;;;;;5011831;28;20026;-42
2022/04/02 07:49:48;;;;;;;20.55;13.02;;;;;;;;;;5011809;28;20502;-43
2022/04/02 07:52:14;;;;;;;21.35;12.70;;;;;;;;;;5012183;28;20163;-45
2022/04/02 07:54:42;;;;;;;20.75;12.73;;;;;;;;;;5012151;28;20466;-43
2022/04/02 07:57:09;;;;;;;19.10;12.70;;;;;;;;;;5011903;28;20030;-43
2022/04/02 07:59:43;;;;;;;23.15;12.73;;;;;;;;;;5011692;28;20050;-43
2022/04/02 08:02:51;;;;;;;22.13;12.52;;;;;;;;;;5008068;28;20041;-43
2022/04/02 08:05:06;;;;;;;18.80;11.50;;;;;;;;;;4988177;28;20125;-43
2022/04/02 08:07:36;;;;;;;19.55;12.48;;;;;;;;;;5008302;28;20070;-42
2022/04/02 08:10:08;;;;;;;21.80;13.50;;;;;;;;;;5010573;28;20041;-45
2022/04/02 08:12:35;;;;;;;19.73;11.93;;;;;;;;;;4995575;28;20034;-45
2022/04/02 08:15:07;;;;;;;18.15;12.32;;;;;;;;;;5014455;28;20025;-42
2022/04/02 08:17:34;;;;;;;21.23;13.18;;;;;;;;;;5014556;28;20026;-46
2022/04/02 08:20:01;;;;;;;21.48;12.57;;;;;;;;;;5014392;28;20033;-44
2022/04/02 08:22:27;;;;;;;19.45;12.32;;;;;;;;;;5014636;28;20348;-42
2022/04/02 08:24:55;;;;;;;24.95;13.43;;;;;;;;;;5014593;28;20060;-44
2022/04/02 08:27:29;;;;;;;18.75;11.95;;;;;;;;;;5014053;28;20105;-45
2022/04/02 08:30:07;;;;;;;20.45;12.18;;;;;;;;;;5014365;28;20053;-50
2022/04/02 08:33:07;;;;;;;21.30;12.65;;;;;;;;;;5014018;28;20489;-41
2022/04/02 08:35:41;;;;;;;21.23;13.10;;;;;;;;;;5014166;28;20052;-42
2022/04/02 08:38:20;;;;;;;20.23;11.93;;;;;;;;;;5014102;28;20066;-41
2022/04/02 08:41:03;;;;;;;21.95;12.40;;;;;;;;;;5013831;28;20033;-41
2022/04/02 08:43:46;;;;;;;21.02;12.65;;;;;;;;;;5014188;28;20041;-44
2022/04/02 08:46:34;;;;;;;21.83;12.80;;;;;;;;;;5014265;28;20100;-42
2022/04/02 08:49:26;;;;;;;21.67;12.63;;;;;;;;;;5013802;28;20025;-42
2022/04/02 08:52:12;;;;;;;23.88;13.77;;;;;;;;;;5009164;28;20069;-42
2022/04/02 08:55:09;;;;;;;21.88;13.65;;;;;;;;;;5009730;28;20058;-43
2022/04/02 08:57:48;;;;;;;19.15;12.50;;;;;;;;;;4989388;28;20099;-44
2022/04/02 09:00:15;;;;;;;18.73;11.88;;;;;;;;;;4994184;28;20056;-43
2022/04/02 09:02:53;;;;;;;20.60;12.63;;;;;;;;;;4994028;28;20060;-41
2022/04/02 09:05:28;;;;;;;22.25;13.73;;;;;;;;;;4994275;28;20026;-41
2022/04/02 09:08:23;;;;;;;19.10;12.18;;;;;;;;;;4993973;28;20117;-42
2022/04/02 09:11:29;;;;;;;20.08;12.77;;;;;;;;;;4994117;28;20030;-48
2022/04/02 09:14:31;;;;;;;17.45;12.23;;;;;;;;;;4993778;28;20031;-46
2022/04/02 09:17:00;;;;;;;23.13;11.82;;;;;;;;;;4993827;28;20092;-42
2022/04/02 09:19:29;;;;;;;19.27;12.82;;;;;;;;;;4993771;28;20031;-50
2022/04/02 09:22:04;;;;;;;19.05;12.07;;;;;;;;;;4993930;28;20435;-45
2022/04/02 09:24:54;;;;;;;23.65;13.63;;;;;;;;;;4993690;28;20482;-47
2022/04/02 09:27:27;;;;;;;18.95;13.20;;;;;;;;;;4993979;28;20388;-44
2022/04/02 09:30:17;;;;;;;19.08;12.60;;;;;;;;;;4993757;28;20432;-46
2022/04/02 09:33:01;;;;;;;20.00;13.07;;;;;;;;;;4993345;28;20030;-44
2022/04/02 09:35:45;;;;;;;20.38;13.27;;;;;;;;;;4993387;28;20386;-42
2022/04/02 09:38:36;;;;;;;22.38;13.13;;;;;;;;;;4993261;28;20030;-44
2022/04/02 09:41:17;;;;;;;21.70;13.43;;;;;;;;;;4966408;28;20034;-44
2022/04/02 09:44:03;;;;;;;24.67;12.52;;;;;;;;;;5010319;28;20119;-48
2022/04/02 09:46:50;;;;;;;19.70;13.07;;;;;;;;;;5011208;28;20041;-41
2022/04/02 09:49:41;;;;;;;21.05;13.05;;;;;;;;;;5013073;28;20084;-43
2022/04/02 09:52:08;;;;;;;17.45;12.20;;;;;;;;;;5012537;28;20037;-43
2022/04/02 09:55:09;;;;;;;22.60;13.57;;;;;;;;;;5012747;28;20033;-42
2022/04/02 09:57:54;;;;;;;21.60;13.05;;;;;;;;;;4979848;28;20124;-41
2022/04/02 10:00:20;;;;;;;22.55;13.68;;;;;;;;;;5012711;28;20478;-41
2022/04/02 10:03:05;;;;;;;18.95;13.10;;;;;;;;;;5012740;28;20029;-42
2022/04/02 10:05:42;;;;;;;18.40;12.02;;;;;;;;;;5011917;28;20021;-42
2022/04/02 10:08:31;;;;;;;19.95;11.88;;;;;;;;;;5012632;28;20358;-42
2022/04/02 10:11:01;;;;;;;19.35;12.55;;;;;;;;;;5012645;28;20101;-44
2022/04/02 10:13:30;;;;;;;21.10;12.88;;;;;;;;;;5012329;28;20037;-41
2022/04/02 10:15:58;;;;;;;18.65;12.07;;;;;;;;;;5012452;28;20053;-41
2022/04/02 10:18:26;;;;;;;22.75;12.88;;;;;;;;;;5012214;28;20037;-44
2022/04/02 10:20:53;;;;;;;20.30;13.07;;;;;;;;;;5012440;28;20080;-42
2022/04/02 10:23:23;;;;;;;21.85;12.95;;;;;;;;;;5012422;28;20044;-42
2022/04/02 10:26:00;;;;;;;;;;;;;;;;;;5012339;28;20033;-44
2022/04/02 10:28:30;;;;;;;19.75;12.05;;;;;;;;;;5012331;28;19972;-42
2022/04/02 10:31:01;;;;;;;21.17;12.60;;;;;;;;;;5011711;28;20022;-44
2022/04/02 10:33:34;;;;;;;19.55;13.30;;;;;;;;;;5011795;28;20029;-42
2022/04/02 10:36:03;;;;;;;22.02;13.15;;;;;;;;;;5011249;28;20120;-42
2022/04/02 10:38:37;;;;;;;21.75;13.52;;;;;;;;;;5012245;28;20025;-46
2022/04/02 10:41:12;;;;;;;22.70;13.65;;;;;;;;;;5011762;28;20018;-44
2022/04/02 10:44:26;;;;;;;22.63;13.05;;;;;;;;;;5011636;28;20029;-42
2022/04/02 10:46:57;;;;;;;19.73;12.60;;;;;;;;;;4989891;28;20053;-42
2022/04/02 10:49:32;;;;;;;19.77;14.10;;;;;;;;;;5011798;28;20668;-46
2022/04/02 10:52:01;;;;;;;19.33;13.05;;;;;;;;;;5011825;28;20461;-47
2022/04/02 10:54:28;;;;;;;21.85;14.07;;;;;;;;;;5011399;28;20877;-44
2022/04/02 10:56:57;;;;;;;20.77;12.77;;;;;;;;;;5011724;28;20038;-42
2022/04/02 10:59:30;;;;;;;19.63;12.90;;;;;;;;;;5011357;28;20457;-42
2022/04/02 11:01:58;;;;;;;22.20;13.05;;;;;;;;;;5011728;28;20072;-47
2022/04/02 11:04:30;;;;;;;18.77;13.60;;;;;;;;;;5011384;28;20041;-42
2022/04/02 11:06:57;;;;;;;21.55;13.20;;;;;;;;;;5011327;28;20021;-42
2022/04/02 11:09:51;;;;;;;20.80;13.63;;;;;;;;;;5010257;28;20025;-43
2022/04/02 11:12:18;;;;;;;21.60;13.38;;;;;;;;;;5010308;28;20143;-43
2022/04/02 11:14:49;;;;;;;19.85;13.70;;;;;;;;;;5012191;28;20108;-42
2022/04/02 11:17:29;;;;;;;20.67;13.73;;;;;;;;;;5012505;28;20066;-46
2022/04/02 11:20:08;;;;;;;19.20;12.98;;;;;;;;;;5013031;28;20084;-46
2022/04/02 11:23:02;;;;;;;21.33;13.93;;;;;;;;;;5012609;28;20116;-42
2022/04/02 11:25:34;;;;;;;18.98;12.38;;;;;;;;;;5013059;28;20415;-46
2022/04/02 11:28:14;;;;;;;22.67;13.60;;;;;;;;;;5012572;28;20030;-42
2022/04/02 11:30:43;;;;;;;22.13;14.13;;;;;;;;;;5012905;28;20037;-46
2022/04/02 11:33:09;;;;;;;21.50;13.90;;;;;;;;;;5012543;28;20382;-44
2022/04/02 11:35:44;;;;;;;17.25;12.70;;;;;;;;;;5012602;28;20104;-41
2022/04/02 11:38:20;;;;;;;24.63;14.52;;;;;;;;;;5012841;28;20022;-44
2022/04/02 11:41:07;;;;;;;25.40;14.27;;;;;;;;;;5012790;28;20033;-43
2022/04/02 11:43:38;;;;;;;23.08;14.82;;;;;;;;;;5012560;28;20537;-44
2022/04/02 11:46:06;;;;;;;20.50;14.43;;;;;;;;;;5014288;28;20026;-42
2022/04/02 11:48:34;;;;;;;25.63;15.05;;;;;;;;;;5016900;28;20030;-44
2022/04/02 11:51:16;;;;;;;20.83;13.35;;;;;;;;;;5016242;28;20520;-43
2022/04/02 11:53:43;;;;;;;18.40;13.02;;;;;;;;;;5016779;28;20030;-45
2022/04/02 11:56:34;;;;;;;18.65;13.27;;;;;;;;;;5016636;28;20022;-43
2022/04/02 11:59:04;;;;;;;20.95;13.18;;;;;;;;;;5016583;28;20497;-45
2022/04/02 12:01:43;;;;;;;22.38;14.57;;;;;;;;;;5016766;28;20133;-43
2022/04/02 12:04:15;;;;;;;23.90;13.43;;;;;;;;;;5016740;28;20026;-42
2022/04/02 12:06:42;;;;;;;18.55;12.80;;;;;;;;;;4998757;28;20288;-42
2022/04/02 12:09:12;;;;;;;20.58;12.85;;;;;;;;;;5016287;28;20030;-43
2022/04/02 12:11:41;;;;;;;19.90;12.95;;;;;;;;;;5016560;28;20029;-44
2022/04/02 12:14:07;;;;;;;19.15;13.23;;;;;;;;;;5016242;28;20033;-47
2022/04/02 12:16:34;;;;;;;24.13;13.38;;;;;;;;;;5015903;28;20355;-43
2022/04/02 12:18:59;;;;;;;21.15;13.85;;;;;;;;;;5016326;28;20079;-45
2022/04/02 12:21:41;;;;;;;19.02;13.27;;;;;;;;;;5016248;28;20025;-44
2022/04/02 12:24:08;;;;;;;24.50;14.38;;;;;;;;;;5016319;28;20084;-45
2022/04/02 12:26:34;;;;;;;25.08;13.93;;;;;;;;;;5015160;28;20045;-43
2022/04/02 12:29:01;;;;;;;18.67;13.25;;;;;;;;;;5014572;28;20481;-41
2022/04/02 12:31:30;;;;;;;18.70;12.70;;;;;;;;;;5014594;28;20088;-42
2022/04/02 12:33:57;;;;;;;22.00;13.48;;;;;;;;;;5014142;28;20128;-42
2022/04/02 12:36:59;;;;;;;23.85;14.27;;;;;;;;;;5014261;28;20112;-41
2022/04/02 12:39:25;;;;;;;21.08;12.68;;;;;;;;;;5014061;28;20026;-45
2022/04/02 12:41:51;;;;;;;19.10;13.07;;;;;;;;;;5014188;28;20034;-47
2022/04/02 12:44:21;;;;;;;24.13;14.00;;;;;;;;;;5014125;28;20033;-44
2022/04/02 12:46:48;;;;;;;20.23;13.18;;;;;;;;;;5014292;28;20034;-45
2022/04/02 12:49:35;;;;;;;17.65;12.15;;;;;;;;;;5013908;28;20253;-45
2022/04/02 12:52:10;;;;;;;19.33;12.25;;;;;;;;;;4975144;28;20050;-46
2022/04/02 12:54:36;;;;;;;17.17;12.27;;;;;;;;;;4975125;28;20387;-47
2022/04/02 12:57:15;;;;;;;19.98;13.27;;;;;;;;;;4974227;28;20023;-43
2022/04/02 12:59:43;;;;;;;18.95;11.60;;;;;;;;;;4975099;28;20027;-45
2022/04/02 13:02:14;;;;;;;18.33;12.25;;;;;;;;;;4974994;28;20027;-45
2022/04/02 13:04:41;;;;;;;17.92;12.43;;;;;;;;;;4974245;28;20115;-43
2022/04/02 13:07:14;;;;;;;20.38;13.00;;;;;;;;;;4973076;28;20452;-42
2022/04/02 13:09:41;;;;;;;22.50;12.55;;;;;;;;;;4974561;28;20050;-47
2022/04/02 13:12:09;;;;;;;21.23;12.80;;;;;;;;;;4974774;28;20388;-46
2022/04/02 13:14:34;;;;;;;20.83;12.30;;;;;;;;;;4974657;28;20067;-41
2022/04/02 13:17:08;;;;;;;18.83;11.88;;;;;;;;;;4974205;28;20497;-42
2022/04/02 13:22:40;;;;;;;22.60;12.77;;;;;;;;;;4974494;28;20041;-43
2022/04/02 13:25:22;;;;;;;18.55;12.30;;;;;;;;;;4974401;28;20039;-45
2022/04/02 13:28:23;;;;;;;19.08;11.73;;;;;;;;;;4974581;28;20035;-44
2022/04/02 13:30:51;;;;;;;18.60;11.98;;;;;;;;;;4974472;28;20055;-42
2022/04/02 13:33:54;;;;;;;23.80;11.77;;;;;;;;;;4974031;28;20034;-41
2022/04/02 13:37:01;;;;;;;18.73;11.63;;;;;;;;;;4974048;28;20030;-43
2022/04/02 13:39:27;;;;;;;17.08;11.75;;;;;;;;;;4973940;28;20027;-44
2022/04/02 13:41:57;;;;;;;19.23;11.75;;;;;;;;;;4974295;28;20027;-45
2022/04/02 13:44:24;;;;;;;;;;;;;;;;;;4974400;28;20066;-51
2022/04/02 13:46:57;;;;;;;16.70;10.57;;;;;;;;;;4973867;28;19978;-44
2022/04/02 13:49:30;;;;;;;20.60;11.10;;;;;;;;;;4972333;28;20042;-42
2022/04/02 13:51:59;;;;;;;18.00;11.95;;;;;;;;;;4973987;28;20379;-41
2022/04/02 13:54:34;;;;;;;18.02;11.82;;;;;;;;;;4974017;28;20031;-42
2022/04/02 13:57:00;;;;;;;23.58;11.75;;;;;;;;;;4973346;28;20416;-51
2022/04/02 13:59:31;;;;;;;19.52;12.48;;;;;;;;;;4974217;28;20039;-42
2022/04/02 14:01:58;;;;;;;19.50;11.50;;;;;;;;;;4975216;28;20471;-44
2022/04/02 14:04:31;;;;;;;20.45;11.85;;;;;;;;;;4975110;28;20089;-43
2022/04/02 14:07:01;;;;;;;21.15;11.80;;;;;;;;;;4975008;28;20023;-46
2022/04/02 14:09:29;;;;;;;19.55;11.93;;;;;;;;;;4974242;28;20023;-46
2022/04/02 14:12:01;;;;;;;18.23;11.27;;;;;;;;;;4974925;28;20030;-42
2022/04/02 14:14:35;;;;;;;17.30;11.25;;;;;;;;;;4974789;28;20116;-45
2022/04/02 14:17:15;;;;;;;19.85;12.00;;;;;;;;;;4975255;28;20027;-44
2022/04/02 14:19:46;;;;;;;17.60;11.13;;;;;;;;;;4975162;28;20019;-46
2022/04/02 14:22:12;;;;;;;;;;;;;;;;;;4974867;28;20089;-41
2022/04/02 14:25:14;;;;;;;19.13;11.10;;;;;;;;;;4974984;28;20321;-43
2022/04/02 14:27:49;;;;;;;16.15;11.20;;;;;;;;;;4972461;28;20062;-42
2022/04/02 14:30:42;;;;;;;17.05;10.82;;;;;;;;;;4974823;28;20523;-41
2022/04/02 14:34:02;;;;;;;20.38;11.70;;;;;;;;;;4974292;28;20510;-41
2022/04/02 14:37:15;;;;;;;17.92;10.77;;;;;;;;;;4914585;29;20036;-42
2022/04/02 14:40:11;;;;;;;17.48;10.27;;;;;;;;;;4964862;28;20066;-42
2022/04/02 14:42:51;;;;;;;23.30;12.60;;;;;;;;;;4974483;28;20027;-46
2022/04/02 14:45:36;;;;;;;20.02;12.10;;;;;;;;;;4974590;28;20356;-42
2022/04/02 14:48:08;;;;;;;24.67;12.18;;;;;;;;;;4974790;28;20048;-45
2022/04/02 14:50:52;;;;;;;21.35;12.18;;;;;;;;;;4982928;28;20053;-42